sensor_id;sensor_type;location;lat;lon;timestamp;temperature;humidity
11436;DHT22;5774;48.778;8.904;2022-07-24T00:01:07;19.50;99.90
11436;DHT22;5774;48.778;8.904;2022-07-24T00:03:35;19.50;99.90
11436;DHT22;5774;48.778;8.904;2022-07-24T00:06:01;19.50;99.90
11436;DHT22;5774;48.778;8.904;2022-07-24T00:08:28;19.50;99.90
11436;DHT22;5774;48.778;8.904;2022-07-24T00:10:55;19.50;99.90
11436;DHT22;5774;48.778;8.904;2022-07-24T00:13:22;19.50;99.90
11436;DHT22;5774;48.778;8.904;2022-07-24T00:15:49;19.50;99.90
11436;DHT22;5774;48.778;8.904;2022-07-24T00:18:15;19.50;99.90
11436;DHT22;5774;48.778;8.904;2022-07-24T00:20:43;19.40;99.90
11436;DHT22;5774;48.778;8.904;2022-07-24T00:23:11;19.40;99.90
11436;DHT22;5774;48.778;8.904;2022-07-24T00:25:38;19.40;99.90
11436;DHT22;5774;48.778;8.904;2022-07-24T00:28:04;19.40;99.90
11436;DHT22;5774;48.778;8.904;2022-07-24T00:30:31;19.40;99.90
11436;DHT22;5774;48.778;8.904;2022-07-24T00:32:58;19.40;99.90
11436;DHT22;5774;48.778;8.904;2022-07-24T00:35:25;19.40;99.90
11436;DHT22;5774;48.778;8.904;2022-07-24T00:37:53;19.40;99.90
11436;DHT22;5774;48.778;8.904;2022-07-24T00:40:19;19.40;99.90
11436;DHT22;5774;48.778;8.904;2022-07-24T00:42:46;19.30;99.90
11436;DHT22;5774;48.778;8.904;2022-07-24T00:45:13;19.30;99.90
11436;DHT22;5774;48.778;8.904;2022-07-24T00:47:40;19.30;99.90
11436;DHT22;5774;48.778;8.904;2022-07-24T00:50:07;19.30;99.90
11436;DHT22;5774;48.778;8.904;2022-07-24T00:52:34;19.30;99.90
11436;DHT22;5774;48.778;8.904;2022-07-24T00:55:02;19.30;99.90
11436;DHT22;5774;48.778;8.904;2022-07-24T00:57:30;19.30;99.90
11436;DHT22;5774;48.778;8.904;2022-07-24T00:59:57;19.30;99.90
11436;DHT22;5774;48.778;8.904;2022-07-24T01:02:24;19.30;99.90
11436;DHT22;5774;48.778;8.904;2022-07-24T01:04:51;19.30;99.90
11436;DHT22;5774;48.778;8.904;2022-07-24T01:07:17;19.20;99.90
11436;DHT22;5774;48.778;8.904;2022-07-24T01:09:44;19.20;99.90
11436;DHT22;5774;48.778;8.904;2022-07-24T01:12:12;19.20;99.90
11436;DHT22;5774;48.778;8.904;2022-07-24T01:14:40;19.20;99.90
11436;DHT22;5774;48.778;8.904;2022-07-24T01:17:06;19.20;99.90
11436;DHT22;5774;48.778;8.904;2022-07-24T01:19:33;19.10;99.90
11436;DHT22;5774;48.778;8.904;2022-07-24T01:22:01;19.10;99.90
11436;DHT22;5774;48.778;8.904;2022-07-24T01:24:31;19.10;99.90
11436;DHT22;5774;48.778;8.904;2022-07-24T01:27:00;19.10;99.90
11436;DHT22;5774;48.778;8.904;2022-07-24T01:29:27;19.00;99.90
11436;DHT22;5774;48.778;8.904;2022-07-24T01:31:53;19.00;99.90
11436;DHT22;5774;48.778;8.904;2022-07-24T01:34:20;18.90;99.90
11436;DHT22;5774;48.778;8.904;2022-07-24T01:36:47;18.90;99.90
11436;DHT22;5774;48.778;8.904;2022-07-24T01:39:15;18.90;99.90
11436;DHT22;5774;48.778;8.904;2022-07-24T01:41:42;18.90;99.90
11436;DHT22;5774;48.778;8.904;2022-07-24T01:44:08;18.80;99.90
11436;DHT22;5774;48.778;8.904;2022-07-24T01:46:35;18.80;99.90
11436;DHT22;5774;48.778;8.904;2022-07-24T01:49:02;18.70;99.90
11436;DHT22;5774;48.778;8.904;2022-07-24T01:51:29;18.70;99.90
11436;DHT22;5774;48.778;8.904;2022-07-24T01:53:56;18.70;99.90
11436;DHT22;5774;48.778;8.904;2022-07-24T01:56:24;18.70;99.90
11436;DHT22;5774;48.778;8.904;2022-07-24T01:58:51;18.60;99.90
11436;DHT22;5774;48.778;8.904;2022-07-24T02:01:17;18.60;99.90
11436;DHT22;5774;48.778;8.904;2022-07-24T02:03:44;18.60;99.90
11436;DHT22;5774;48.778;8.904;2022-07-24T02:06:12;18.50;99.90
11436;DHT22;5774;48.778;8.904;2022-07-24T02:08:38;18.40;99.90
11436;DHT22;5774;48.778;8.904;2022-07-24T02:11:05;18.40;99.90
11436;DHT22;5774;48.778;8.904;2022-07-24T02:13:33;18.30;99.90
11436;DHT22;5774;48.778;8.904;2022-07-24T02:16:00;18.30;99.90
11436;DHT22;5774;48.778;8.904;2022-07-24T02:18:27;18.20;99.90
11436;DHT22;5774;48.778;8.904;2022-07-24T02:20:54;18.20;99.90
11436;DHT22;5774;48.778;8.904;2022-07-24T02:23:20;18.10;99.90
11436;DHT22;5774;48.778;8.904;2022-07-24T02:25:48;18.20;99.90
11436;DHT22;5774;48.778;8.904;2022-07-24T02:28:15;18.10;99.90
11436;DHT22;5774;48.778;8.904;2022-07-24T02:30:44;18.10;99.90
11436;DHT22;5774;48.778;8.904;2022-07-24T02:33:10;18.00;99.90
11436;DHT22;5774;48.778;8.904;2022-07-24T02:35:38;18.00;99.90
11436;DHT22;5774;48.778;8.904;2022-07-24T02:38:04;18.00;99.90
11436;DHT22;5774;48.778;8.904;2022-07-24T02:40:31;17.90;99.90
11436;DHT22;5774;48.778;8.904;2022-07-24T02:42:58;17.90;99.90
11436;DHT22;5774;48.778;8.904;2022-07-24T02:45:25;17.90;99.90
11436;DHT22;5774;48.778;8.904;2022-07-24T02:47:54;17.80;99.90
11436;DHT22;5774;48.778;8.904;2022-07-24T02:50:23;17.80;99.90
11436;DHT22;5774;48.778;8.904;2022-07-24T02:52:51;17.70;99.90
11436;DHT22;5774;48.778;8.904;2022-07-24T02:55:18;17.70;99.90
11436;DHT22;5774;48.778;8.904;2022-07-24T02:57:44;17.60;99.90
11436;DHT22;5774;48.778;8.904;2022-07-24T03:00:12;17.60;99.90
11436;DHT22;5774;48.778;8.904;2022-07-24T03:02:41;17.50;99.90
11436;DHT22;5774;48.778;8.904;2022-07-24T03:05:09;17.50;99.90
11436;DHT22;5774;48.778;8.904;2022-07-24T03:07:36;17.40;99.90
11436;DHT22;5774;48.778;8.904;2022-07-24T03:10:02;17.40;99.90
11436;DHT22;5774;48.778;8.904;2022-07-24T03:12:29;17.40;99.90
11436;DHT22;5774;48.778;8.904;2022-07-24T03:14:56;17.40;99.90
11436;DHT22;5774;48.778;8.904;2022-07-24T03:17:23;17.30;99.90
11436;DHT22;5774;48.778;8.904;2022-07-24T03:19:49;17.30;99.90
11436;DHT22;5774;48.778;8.904;2022-07-24T03:22:17;17.20;99.90
11436;DHT22;5774;48.778;8.904;2022-07-24T03:24:44;17.20;99.90
11436;DHT22;5774;48.778;8.904;2022-07-24T03:27:11;17.10;99.90
11436;DHT22;5774;48.778;8.904;2022-07-24T03:29:38;17.20;99.90
11436;DHT22;5774;48.778;8.904;2022-07-24T03:32:05;17.10;99.90
11436;DHT22;5774;48.778;8.904;2022-07-24T03:34:32;17.10;99.90
11436;DHT22;5774;48.778;8.904;2022-07-24T03:36:59;17.10;99.90
11436;DHT22;5774;48.778;8.904;2022-07-24T03:39:27;17.00;99.90
11436;DHT22;5774;48.778;8.904;2022-07-24T03:41:57;17.00;99.90
11436;DHT22;5774;48.778;8.904;2022-07-24T03:44:23;17.00;99.90
11436;DHT22;5774;48.778;8.904;2022-07-24T03:46:50;17.00;99.90
11436;DHT22;5774;48.778;8.904;2022-07-24T03:49:17;17.00;99.90
11436;DHT22;5774;48.778;8.904;2022-07-24T03:51:43;16.90;99.90
11436;DHT22;5774;48.778;8.904;2022-07-24T03:54:10;16.90;99.90
11436;DHT22;5774;48.778;8.904;2022-07-24T03:56:38;16.90;99.90
11436;DHT22;5774;48.778;8.904;2022-07-24T03:59:05;16.90;99.90
11436;DHT22;5774;48.778;8.904;2022-07-24T04:01:31;16.90;99.90
11436;DHT22;5774;48.778;8.904;2022-07-24T04:03:58;16.90;99.90
11436;DHT22;5774;48.778;8.904;2022-07-24T04:06:30;16.90;99.90
11436;DHT22;5774;48.778;8.904;2022-07-24T04:08:57;16.90;99.90
11436;DHT22;5774;48.778;8.904;2022-07-24T04:11:24;16.90;99.90
11436;DHT22;5774;48.778;8.904;2022-07-24T04:13:52;16.90;99.90
11436;DHT22;5774;48.778;8.904;2022-07-24T04:16:18;16.90;99.90
11436;DHT22;5774;48.778;8.904;2022-07-24T04:18:45;16.90;99.90
11436;DHT22;5774;48.778;8.904;2022-07-24T04:21:12;17.00;99.90
11436;DHT22;5774;48.778;8.904;2022-07-24T04:23:39;17.00;99.90
11436;DHT22;5774;48.778;8.904;2022-07-24T04:26:06;17.00;99.90
11436;DHT22;5774;48.778;8.904;2022-07-24T04:28:33;17.00;99.90
11436;DHT22;5774;48.778;8.904;2022-07-24T04:31:01;17.00;99.90
11436;DHT22;5774;48.778;8.904;2022-07-24T04:33:28;17.10;99.90
11436;DHT22;5774;48.778;8.904;2022-07-24T04:35:55;17.10;99.90
11436;DHT22;5774;48.778;8.904;2022-07-24T04:38:22;17.10;99.90
11436;DHT22;5774;48.778;8.904;2022-07-24T04:40:49;17.10;99.90
11436;DHT22;5774;48.778;8.904;2022-07-24T04:43:16;17.10;99.90
11436;DHT22;5774;48.778;8.904;2022-07-24T04:45:42;17.20;99.90
11436;DHT22;5774;48.778;8.904;2022-07-24T04:48:11;17.20;99.90
11436;DHT22;5774;48.778;8.904;2022-07-24T04:50:37;17.20;99.90
11436;DHT22;5774;48.778;8.904;2022-07-24T04:53:04;17.20;99.90
11436;DHT22;5774;48.778;8.904;2022-07-24T04:55:31;17.20;99.90
11436;DHT22;5774;48.778;8.904;2022-07-24T04:57:58;17.30;99.90
11436;DHT22;5774;48.778;8.904;2022-07-24T05:00:25;17.30;99.90
11436;DHT22;5774;48.778;8.904;2022-07-24T05:02:51;17.30;99.90
11436;DHT22;5774;48.778;8.904;2022-07-24T05:05:19;17.30;99.90
11436;DHT22;5774;48.778;8.904;2022-07-24T05:07:46;17.30;99.90
11436;DHT22;5774;48.778;8.904;2022-07-24T05:10:13;17.40;99.90
11436;DHT22;5774;48.778;8.904;2022-07-24T05:12:40;17.40;99.90
11436;DHT22;5774;48.778;8.904;2022-07-24T05:15:07;17.40;99.90
11436;DHT22;5774;48.778;8.904;2022-07-24T05:17:34;17.50;99.90
11436;DHT22;5774;48.778;8.904;2022-07-24T05:20:01;17.50;99.90
11436;DHT22;5774;48.778;8.904;2022-07-24T05:22:30;17.60;99.90
11436;DHT22;5774;48.778;8.904;2022-07-24T05:24:56;17.60;99.90
11436;DHT22;5774;48.778;8.904;2022-07-24T05:27:23;17.70;99.90
11436;DHT22;5774;48.778;8.904;2022-07-24T05:29:50;17.70;99.90
11436;DHT22;5774;48.778;8.904;2022-07-24T05:32:17;17.70;99.90
11436;DHT22;5774;48.778;8.904;2022-07-24T05:34:43;17.80;99.90
11436;DHT22;5774;48.778;8.904;2022-07-24T05:37:10;17.80;99.90
11436;DHT22;5774;48.778;8.904;2022-07-24T05:39:38;17.90;99.90
11436;DHT22;5774;48.778;8.904;2022-07-24T05:42:05;18.00;99.90
11436;DHT22;5774;48.778;8.904;2022-07-24T05:44:31;18.00;99.90
11436;DHT22;5774;48.778;8.904;2022-07-24T05:46:58;18.10;99.90
11436;DHT22;5774;48.778;8.904;2022-07-24T05:49:25;18.20;99.90
11436;DHT22;5774;48.778;8.904;2022-07-24T05:51:52;18.30;99.90
11436;DHT22;5774;48.778;8.904;2022-07-24T05:54:18;18.30;99.90
11436;DHT22;5774;48.778;8.904;2022-07-24T05:56:46;18.40;99.90
11436;DHT22;5774;48.778;8.904;2022-07-24T05:59:13;18.50;99.90
11436;DHT22;5774;48.778;8.904;2022-07-24T06:01:40;18.60;99.90
11436;DHT22;5774;48.778;8.904;2022-07-24T06:04:07;18.70;99.90
11436;DHT22;5774;48.778;8.904;2022-07-24T06:06:34;18.80;99.90
11436;DHT22;5774;48.778;8.904;2022-07-24T06:09:00;18.90;99.90
11436;DHT22;5774;48.778;8.904;2022-07-24T06:11:27;19.00;99.90
11436;DHT22;5774;48.778;8.904;2022-07-24T06:13:55;19.20;99.90
11436;DHT22;5774;48.778;8.904;2022-07-24T06:16:22;19.20;99.90
11436;DHT22;5774;48.778;8.904;2022-07-24T06:18:48;19.30;99.90
11436;DHT22;5774;48.778;8.904;2022-07-24T06:21:15;19.40;99.90
11436;DHT22;5774;48.778;8.904;2022-07-24T06:23:42;19.50;99.90
11436;DHT22;5774;48.778;8.904;2022-07-24T06:26:09;19.70;99.90
11436;DHT22;5774;48.778;8.904;2022-07-24T06:28:35;19.80;99.90
11436;DHT22;5774;48.778;8.904;2022-07-24T06:31:04;19.90;99.90
11436;DHT22;5774;48.778;8.904;2022-07-24T06:33:30;20.10;99.90
11436;DHT22;5774;48.778;8.904;2022-07-24T06:35:58;20.30;99.90
11436;DHT22;5774;48.778;8.904;2022-07-24T06:38:25;20.60;99.90
11436;DHT22;5774;48.778;8.904;2022-07-24T06:40:52;20.90;99.90
11436;DHT22;5774;48.778;8.904;2022-07-24T06:43:18;21.30;99.90
11436;DHT22;5774;48.778;8.904;2022-07-24T06:45:46;21.90;99.90
11436;DHT22;5774;48.778;8.904;2022-07-24T06:48:14;22.20;99.90
11436;DHT22;5774;48.778;8.904;2022-07-24T06:50:40;22.80;99.90
11436;DHT22;5774;48.778;8.904;2022-07-24T06:53:07;23.20;99.90
11436;DHT22;5774;48.778;8.904;2022-07-24T06:55:34;23.80;99.90
11436;DHT22;5774;48.778;8.904;2022-07-24T06:58:01;24.10;99.90
11436;DHT22;5774;48.778;8.904;2022-07-24T07:00:27;24.50;99.90
11436;DHT22;5774;48.778;8.904;2022-07-24T07:02:54;24.90;99.90
11436;DHT22;5774;48.778;8.904;2022-07-24T07:05:22;25.10;99.90
11436;DHT22;5774;48.778;8.904;2022-07-24T07:07:49;25.60;99.90
11436;DHT22;5774;48.778;8.904;2022-07-24T07:10:16;26.00;99.90
11436;DHT22;5774;48.778;8.904;2022-07-24T07:12:43;26.30;99.90
11436;DHT22;5774;48.778;8.904;2022-07-24T07:15:10;26.60;99.90
11436;DHT22;5774;48.778;8.904;2022-07-24T07:17:38;27.00;99.90
11436;DHT22;5774;48.778;8.904;2022-07-24T07:20:05;27.40;99.90
11436;DHT22;5774;48.778;8.904;2022-07-24T07:22:34;27.60;99.90
11436;DHT22;5774;48.778;8.904;2022-07-24T07:25:01;27.80;99.90
11436;DHT22;5774;48.778;8.904;2022-07-24T07:27:29;27.80;99.90
11436;DHT22;5774;48.778;8.904;2022-07-24T07:29:55;27.90;99.90
11436;DHT22;5774;48.778;8.904;2022-07-24T07:32:22;28.00;99.90
11436;DHT22;5774;48.778;8.904;2022-07-24T07:34:49;28.10;99.90
11436;DHT22;5774;48.778;8.904;2022-07-24T07:37:15;28.20;99.90
11436;DHT22;5774;48.778;8.904;2022-07-24T07:39:43;28.30;99.90
11436;DHT22;5774;48.778;8.904;2022-07-24T07:42:10;28.30;99.90
11436;DHT22;5774;48.778;8.904;2022-07-24T07:44:37;28.20;99.90
11436;DHT22;5774;48.778;8.904;2022-07-24T07:47:04;28.20;99.90
11436;DHT22;5774;48.778;8.904;2022-07-24T07:49:30;28.30;99.90
11436;DHT22;5774;48.778;8.904;2022-07-24T07:51:57;28.20;99.90
11436;DHT22;5774;48.778;8.904;2022-07-24T07:54:24;28.10;99.90
11436;DHT22;5774;48.778;8.904;2022-07-24T07:56:52;28.10;99.90
11436;DHT22;5774;48.778;8.904;2022-07-24T07:59:19;27.90;99.90
11436;DHT22;5774;48.778;8.904;2022-07-24T08:01:45;27.60;99.10
11436;DHT22;5774;48.778;8.904;2022-07-24T08:04:12;27.40;99.50
11436;DHT22;5774;48.778;8.904;2022-07-24T08:06:39;27.30;99.10
11436;DHT22;5774;48.778;8.904;2022-07-24T08:09:05;27.10;99.70
11436;DHT22;5774;48.778;8.904;2022-07-24T08:11:32;26.90;99.90
11436;DHT22;5774;48.778;8.904;2022-07-24T08:14:01;26.80;99.90
11436;DHT22;5774;48.778;8.904;2022-07-24T08:16:27;26.90;99.90
11436;DHT22;5774;48.778;8.904;2022-07-24T08:18:54;26.80;99.60
11436;DHT22;5774;48.778;8.904;2022-07-24T08:21:21;26.80;99.40
11436;DHT22;5774;48.778;8.904;2022-07-24T08:23:47;26.80;99.90
11436;DHT22;5774;48.778;8.904;2022-07-24T08:26:15;27.00;99.40
11436;DHT22;5774;48.778;8.904;2022-07-24T08:28:41;27.10;99.00
11436;DHT22;5774;48.778;8.904;2022-07-24T08:31:09;27.20;99.20
11436;DHT22;5774;48.778;8.904;2022-07-24T08:33:36;27.50;99.70
11436;DHT22;5774;48.778;8.904;2022-07-24T08:36:07;27.70;98.60
11436;DHT22;5774;48.778;8.904;2022-07-24T08:38:34;27.70;97.70
11436;DHT22;5774;48.778;8.904;2022-07-24T08:41:01;27.70;97.20
11436;DHT22;5774;48.778;8.904;2022-07-24T08:43:28;27.80;98.50
11436;DHT22;5774;48.778;8.904;2022-07-24T08:45:55;28.10;98.60
11436;DHT22;5774;48.778;8.904;2022-07-24T08:48:23;28.30;97.20
11436;DHT22;5774;48.778;8.904;2022-07-24T08:50:51;28.30;95.80
11436;DHT22;5774;48.778;8.904;2022-07-24T08:53:19;28.30;96.30
11436;DHT22;5774;48.778;8.904;2022-07-24T08:55:46;28.40;95.50
11436;DHT22;5774;48.778;8.904;2022-07-24T08:58:12;28.20;96.60
11436;DHT22;5774;48.778;8.904;2022-07-24T09:00:39;28.20;97.30
11436;DHT22;5774;48.778;8.904;2022-07-24T09:03:06;27.90;97.50
11436;DHT22;5774;48.778;8.904;2022-07-24T09:05:34;27.60;98.30
11436;DHT22;5774;48.778;8.904;2022-07-24T09:08:18;27.30;98.80
11436;DHT22;5774;48.778;8.904;2022-07-24T09:10:52;26.90;98.60
11436;DHT22;5774;48.778;8.904;2022-07-24T09:13:20;26.60;99.30
11436;DHT22;5774;48.778;8.904;2022-07-24T09:15:51;26.40;99.60
11436;DHT22;5774;48.778;8.904;2022-07-24T09:18:25;26.30;99.90
11436;DHT22;5774;48.778;8.904;2022-07-24T09:20:57;26.20;99.90
11436;DHT22;5774;48.778;8.904;2022-07-24T09:23:24;26.00;99.90
11436;DHT22;5774;48.778;8.904;2022-07-24T09:25:51;26.10;99.90
11436;DHT22;5774;48.778;8.904;2022-07-24T09:28:18;26.10;99.90
11436;DHT22;5774;48.778;8.904;2022-07-24T09:30:46;26.20;99.90
11436;DHT22;5774;48.778;8.904;2022-07-24T09:33:14;26.30;99.90
11436;DHT22;5774;48.778;8.904;2022-07-24T09:35:42;26.60;99.90
11436;DHT22;5774;48.778;8.904;2022-07-24T09:38:12;26.60;99.90
11436;DHT22;5774;48.778;8.904;2022-07-24T09:40:41;26.60;99.90
11436;DHT22;5774;48.778;8.904;2022-07-24T09:43:12;26.80;99.90
11436;DHT22;5774;48.778;8.904;2022-07-24T09:45:51;26.90;99.90
11436;DHT22;5774;48.778;8.904;2022-07-24T09:48:19;27.00;99.90
11436;DHT22;5774;48.778;8.904;2022-07-24T09:50:49;27.00;99.10
11436;DHT22;5774;48.778;8.904;2022-07-24T09:53:18;27.20;99.10
11436;DHT22;5774;48.778;8.904;2022-07-24T09:55:55;27.30;99.50
11436;DHT22;5774;48.778;8.904;2022-07-24T09:58:23;27.50;99.10
11436;DHT22;5774;48.778;8.904;2022-07-24T10:00:51;27.50;97.80
11436;DHT22;5774;48.778;8.904;2022-07-24T10:03:19;27.50;97.40
11436;DHT22;5774;48.778;8.904;2022-07-24T10:05:53;27.60;97.90
11436;DHT22;5774;48.778;8.904;2022-07-24T10:08:22;27.60;97.10
11436;DHT22;5774;48.778;8.904;2022-07-24T10:10:50;27.60;97.20
11436;DHT22;5774;48.778;8.904;2022-07-24T10:13:17;27.60;97.30
11436;DHT22;5774;48.778;8.904;2022-07-24T10:15:48;27.60;97.10
11436;DHT22;5774;48.778;8.904;2022-07-24T10:18:18;27.60;96.90
11436;DHT22;5774;48.778;8.904;2022-07-24T10:20:47;27.60;96.60
11436;DHT22;5774;48.778;8.904;2022-07-24T10:23:23;27.60;96.30
11436;DHT22;5774;48.778;8.904;2022-07-24T10:25:55;27.60;96.20
11436;DHT22;5774;48.778;8.904;2022-07-24T10:28:30;27.40;96.10
11436;DHT22;5774;48.778;8.904;2022-07-24T10:31:03;27.30;96.10
11436;DHT22;5774;48.778;8.904;2022-07-24T10:33:31;27.30;96.30
11436;DHT22;5774;48.778;8.904;2022-07-24T10:35:58;27.20;96.20
11436;DHT22;5774;48.778;8.904;2022-07-24T10:38:29;27.10;96.60
11436;DHT22;5774;48.778;8.904;2022-07-24T10:41:01;27.20;96.40
11436;DHT22;5774;48.778;8.904;2022-07-24T10:43:31;27.30;96.30
11436;DHT22;5774;48.778;8.904;2022-07-24T10:46:10;27.20;96.10
11436;DHT22;5774;48.778;8.904;2022-07-24T10:48:39;27.20;95.90
11436;DHT22;5774;48.778;8.904;2022-07-24T10:51:10;27.20;96.00
11436;DHT22;5774;48.778;8.904;2022-07-24T10:53:44;27.20;96.70
11436;DHT22;5774;48.778;8.904;2022-07-24T10:56:17;27.20;95.80
11436;DHT22;5774;48.778;8.904;2022-07-24T10:58:51;27.20;96.30
11436;DHT22;5774;48.778;8.904;2022-07-24T11:01:35;27.20;95.70
11436;DHT22;5774;48.778;8.904;2022-07-24T11:04:04;27.20;96.20
11436;DHT22;5774;48.778;8.904;2022-07-24T11:06:52;27.30;95.80
11436;DHT22;5774;48.778;8.904;2022-07-24T11:09:22;27.20;96.40
11436;DHT22;5774;48.778;8.904;2022-07-24T11:12:02;27.20;95.70
11436;DHT22;5774;48.778;8.904;2022-07-24T11:14:46;27.20;96.20
11436;DHT22;5774;48.778;8.904;2022-07-24T11:20:09;27.30;95.40
11436;DHT22;5774;48.778;8.904;2022-07-24T11:22:37;27.50;95.80
11436;DHT22;5774;48.778;8.904;2022-07-24T11:25:08;27.60;94.90
11436;DHT22;5774;48.778;8.904;2022-07-24T11:27:46;27.70;94.30
11436;DHT22;5774;48.778;8.904;2022-07-24T11:30:15;27.80;94.80
11436;DHT22;5774;48.778;8.904;2022-07-24T11:32:42;28.00;94.20
11436;DHT22;5774;48.778;8.904;2022-07-24T11:35:09;28.00;93.60
11436;DHT22;5774;48.778;8.904;2022-07-24T11:37:36;28.10;93.50
11436;DHT22;5774;48.778;8.904;2022-07-24T11:40:05;28.20;92.80
11436;DHT22;5774;48.778;8.904;2022-07-24T11:42:34;28.20;92.50
11436;DHT22;5774;48.778;8.904;2022-07-24T11:45:02;28.10;92.90
11436;DHT22;5774;48.778;8.904;2022-07-24T11:47:30;28.20;93.20
11436;DHT22;5774;48.778;8.904;2022-07-24T11:49:57;28.20;93.40
11436;DHT22;5774;48.778;8.904;2022-07-24T11:52:27;28.40;93.70
11436;DHT22;5774;48.778;8.904;2022-07-24T11:54:56;28.40;92.80
11436;DHT22;5774;48.778;8.904;2022-07-24T11:57:28;28.60;93.00
11436;DHT22;5774;48.778;8.904;2022-07-24T11:59:58;28.70;92.90
11436;DHT22;5774;48.778;8.904;2022-07-24T12:02:25;29.00;92.40
11436;DHT22;5774;48.778;8.904;2022-07-24T12:04:52;29.20;91.40
11436;DHT22;5774;48.778;8.904;2022-07-24T12:07:20;29.20;91.50
11436;DHT22;5774;48.778;8.904;2022-07-24T12:09:49;29.30;91.30
11436;DHT22;5774;48.778;8.904;2022-07-24T12:12:17;29.50;90.60
11436;DHT22;5774;48.778;8.904;2022-07-24T12:14:45;29.60;89.90
11436;DHT22;5774;48.778;8.904;2022-07-24T12:17:14;29.50;89.30
11436;DHT22;5774;48.778;8.904;2022-07-24T12:19:40;29.70;88.20
11436;DHT22;5774;48.778;8.904;2022-07-24T12:22:17;29.80;88.80
11436;DHT22;5774;48.778;8.904;2022-07-24T12:24:43;30.00;87.10
11436;DHT22;5774;48.778;8.904;2022-07-24T12:27:10;30.00;87.70
11436;DHT22;5774;48.778;8.904;2022-07-24T12:29:40;30.30;86.20
11436;DHT22;5774;48.778;8.904;2022-07-24T12:32:16;30.60;87.20
11436;DHT22;5774;48.778;8.904;2022-07-24T12:34:43;31.00;84.60
11436;DHT22;5774;48.778;8.904;2022-07-24T12:37:14;31.20;83.50
11436;DHT22;5774;48.778;8.904;2022-07-24T12:39:45;31.20;83.80
11436;DHT22;5774;48.778;8.904;2022-07-24T12:42:12;31.10;80.40
11436;DHT22;5774;48.778;8.904;2022-07-24T12:44:40;30.80;80.00
11436;DHT22;5774;48.778;8.904;2022-07-24T12:47:07;30.60;81.20
11436;DHT22;5774;48.778;8.904;2022-07-24T12:49:40;30.20;81.40
11436;DHT22;5774;48.778;8.904;2022-07-24T12:52:18;30.10;83.10
11436;DHT22;5774;48.778;8.904;2022-07-24T12:54:45;30.00;82.60
11436;DHT22;5774;48.778;8.904;2022-07-24T12:57:13;29.90;82.50
11436;DHT22;5774;48.778;8.904;2022-07-24T12:59:41;29.70;82.50
11436;DHT22;5774;48.778;8.904;2022-07-24T13:02:10;29.70;84.50
11436;DHT22;5774;48.778;8.904;2022-07-24T13:04:41;29.80;83.10
11436;DHT22;5774;48.778;8.904;2022-07-24T13:07:09;29.70;81.60
11436;DHT22;5774;48.778;8.904;2022-07-24T13:09:36;29.80;85.20
11436;DHT22;5774;48.778;8.904;2022-07-24T13:12:03;30.00;82.00
11436;DHT22;5774;48.778;8.904;2022-07-24T13:14:31;30.40;82.90
11436;DHT22;5774;48.778;8.904;2022-07-24T13:17:01;30.90;83.20
11436;DHT22;5774;48.778;8.904;2022-07-24T13:19:29;31.10;79.60
11436;DHT22;5774;48.778;8.904;2022-07-24T13:21:57;31.00;78.90
11436;DHT22;5774;48.778;8.904;2022-07-24T13:24:24;31.30;76.50
11436;DHT22;5774;48.778;8.904;2022-07-24T13:26:51;31.40;76.00
11436;DHT22;5774;48.778;8.904;2022-07-24T13:29:17;31.20;76.40
11436;DHT22;5774;48.778;8.904;2022-07-24T13:31:44;31.10;76.70
11436;DHT22;5774;48.778;8.904;2022-07-24T13:34:11;31.10;75.70
11436;DHT22;5774;48.778;8.904;2022-07-24T13:36:38;31.50;76.80
11436;DHT22;5774;48.778;8.904;2022-07-24T13:39:06;31.80;75.00
11436;DHT22;5774;48.778;8.904;2022-07-24T13:41:33;32.20;75.60
11436;DHT22;5774;48.778;8.904;2022-07-24T13:44:01;32.30;72.90
11436;DHT22;5774;48.778;8.904;2022-07-24T13:46:28;32.80;69.80
11436;DHT22;5774;48.778;8.904;2022-07-24T13:48:55;33.10;68.90
11436;DHT22;5774;48.778;8.904;2022-07-24T13:51:22;33.30;67.20
11436;DHT22;5774;48.778;8.904;2022-07-24T13:53:49;33.50;66.40
11436;DHT22;5774;48.778;8.904;2022-07-24T13:56:17;33.80;66.80
11436;DHT22;5774;48.778;8.904;2022-07-24T13:58:44;33.90;65.30
11436;DHT22;5774;48.778;8.904;2022-07-24T14:01:11;33.80;64.00
11436;DHT22;5774;48.778;8.904;2022-07-24T14:03:38;33.90;65.40
11436;DHT22;5774;48.778;8.904;2022-07-24T14:06:07;33.80;64.80
11436;DHT22;5774;48.778;8.904;2022-07-24T14:08:34;33.60;63.80
11436;DHT22;5774;48.778;8.904;2022-07-24T14:11:02;33.00;65.10
11436;DHT22;5774;48.778;8.904;2022-07-24T14:13:30;33.10;65.20
11436;DHT22;5774;48.778;8.904;2022-07-24T14:15:56;33.10;66.20
11436;DHT22;5774;48.778;8.904;2022-07-24T14:18:23;33.00;64.70
11436;DHT22;5774;48.778;8.904;2022-07-24T14:20:50;33.30;66.70
11436;DHT22;5774;48.778;8.904;2022-07-24T14:23:17;33.40;64.20
11436;DHT22;5774;48.778;8.904;2022-07-24T14:25:44;33.80;65.20
11436;DHT22;5774;48.778;8.904;2022-07-24T14:28:11;34.00;62.70
11436;DHT22;5774;48.778;8.904;2022-07-24T14:30:39;34.00;61.10
11436;DHT22;5774;48.778;8.904;2022-07-24T14:33:06;33.80;60.80
11436;DHT22;5774;48.778;8.904;2022-07-24T14:35:33;32.90;61.20
11436;DHT22;5774;48.778;8.904;2022-07-24T14:38:00;32.60;61.60
11436;DHT22;5774;48.778;8.904;2022-07-24T14:40:27;32.60;63.20
11436;DHT22;5774;48.778;8.904;2022-07-24T14:42:53;32.40;62.10
11436;DHT22;5774;48.778;8.904;2022-07-24T14:45:21;32.60;62.80
11436;DHT22;5774;48.778;8.904;2022-07-24T14:47:49;33.10;61.80
11436;DHT22;5774;48.778;8.904;2022-07-24T14:50:16;33.20;60.00
11436;DHT22;5774;48.778;8.904;2022-07-24T14:52:43;33.50;60.70
11436;DHT22;5774;48.778;8.904;2022-07-24T14:55:09;33.30;59.40
11436;DHT22;5774;48.778;8.904;2022-07-24T14:57:36;33.30;58.90
11436;DHT22;5774;48.778;8.904;2022-07-24T15:00:03;33.40;59.10
11436;DHT22;5774;48.778;8.904;2022-07-24T15:02:32;33.50;59.10
11436;DHT22;5774;48.778;8.904;2022-07-24T15:05:00;33.70;58.20
11436;DHT22;5774;48.778;8.904;2022-07-24T15:07:27;33.50;58.00
11436;DHT22;5774;48.778;8.904;2022-07-24T15:09:54;33.60;58.20
11436;DHT22;5774;48.778;8.904;2022-07-24T15:12:21;33.50;58.60
11436;DHT22;5774;48.778;8.904;2022-07-24T15:14:48;33.50;58.30
11436;DHT22;5774;48.778;8.904;2022-07-24T15:17:14;33.30;57.30
11436;DHT22;5774;48.778;8.904;2022-07-24T15:19:41;33.30;57.50
11436;DHT22;5774;48.778;8.904;2022-07-24T15:22:09;33.00;56.90
11436;DHT22;5774;48.778;8.904;2022-07-24T15:24:36;33.00;57.10
11436;DHT22;5774;48.778;8.904;2022-07-24T15:27:03;32.90;56.50
11436;DHT22;5774;48.778;8.904;2022-07-24T15:29:30;32.70;56.90
11436;DHT22;5774;48.778;8.904;2022-07-24T15:31:57;32.60;57.30
11436;DHT22;5774;48.778;8.904;2022-07-24T15:34:23;32.40;57.10
11436;DHT22;5774;48.778;8.904;2022-07-24T15:36:50;32.20;57.20
11436;DHT22;5774;48.778;8.904;2022-07-24T15:39:18;32.30;57.20
11436;DHT22;5774;48.778;8.904;2022-07-24T15:41:45;32.30;57.80
11436;DHT22;5774;48.778;8.904;2022-07-24T15:44:12;32.40;57.60
11436;DHT22;5774;48.778;8.904;2022-07-24T15:46:39;32.40;56.90
11436;DHT22;5774;48.778;8.904;2022-07-24T15:49:06;32.40;57.10
11436;DHT22;5774;48.778;8.904;2022-07-24T15:51:34;32.50;57.40